Terminal Aerodrome Forecast
Issued by NWS

Home | Current Version | Previous Version | Text Only | Print | Product List | Glossary On
Versions: 1 2 3 4 5 6 7 8 9 10 11 12 13 14 15 16 17 18 19 20 21 22 23 24 25 26 27 28 29 30 31 32 33 34 35 36 37 38 39 40 41
000
FTUS46 KPQR 160357 AAB
TAFONP
TAF AMD
KONP 160357Z 1604/1624 19010KT P6SM OVC018
     FM161000 19004KT P6SM OVC020
     FM161900 19007KT P6SM BKN025 OVC060=

USA.gov is the U.S. government's official web portal to all federal, state and local government web resources and services.